Aviation Digital Data Service (ADDS)

Output produced by METARs form (2014 UTC 01 August 2015)
found at http://aviationweather.gov/adds/metars/
 
KCLT 011729Z 0118/0218 34004KT P6SM FEW070 SCT250 
     FM020200 33003KT P6SM FEW250 
     FM020900 03007KT P6SM FEW250